createdAt,value
2018-07-30T00:02:16.394Z,6.90
2018-07-30T00:04:45.511Z,6.50
2018-07-30T00:07:14.494Z,6.80
2018-07-30T00:09:44.719Z,6.87
2018-07-30T00:12:13.705Z,7.17
2018-07-30T00:14:43.165Z,7.40
2018-07-30T00:17:12.242Z,7.20
2018-07-30T00:19:41.244Z,7.23
2018-07-30T00:22:10.323Z,6.90
2018-07-30T00:24:39.310Z,7.40
2018-07-30T00:27:08.281Z,7.00
2018-07-30T00:29:38.319Z,6.57
2018-07-30T00:32:07.466Z,7.13
2018-07-30T00:34:36.451Z,7.87
2018-07-30T00:37:05.682Z,6.83
2018-07-30T00:39:34.691Z,8.00
2018-07-30T00:42:03.662Z,7.47
2018-07-30T00:44:32.683Z,6.20
2018-07-30T00:47:01.689Z,7.00
2018-07-30T00:49:30.650Z,6.97
2018-07-30T00:51:59.634Z,7.07
2018-07-30T00:54:28.619Z,6.90
2018-07-30T00:56:58.242Z,7.07
2018-07-30T00:59:27.153Z,7.50
2018-07-30T01:01:56.198Z,7.33
2018-07-30T01:04:26.341Z,8.10
2018-07-30T01:06:55.306Z,6.93
2018-07-30T01:09:24.309Z,7.03
2018-07-30T01:11:57.747Z,7.00
2018-07-30T01:14:27.156Z,6.63
2018-07-30T01:16:56.281Z,7.10
2018-07-30T01:19:25.365Z,7.20
2018-07-30T01:21:55.703Z,7.17
2018-07-30T01:24:25.383Z,7.33
2018-07-30T01:26:55.673Z,7.10
2018-07-30T01:29:24.715Z,7.67
2018-07-30T01:31:53.687Z,6.87
2018-07-30T01:34:22.722Z,7.97
2018-07-30T01:36:51.731Z,7.43
2018-07-30T01:39:20.717Z,7.47
2018-07-30T01:41:50.164Z,7.50
2018-07-30T01:44:19.638Z,7.90
2018-07-30T01:46:48.653Z,7.17
2018-07-30T01:49:17.681Z,6.40
2018-07-30T01:51:48.062Z,6.43
2018-07-30T01:54:17.030Z,6.87
2018-07-30T01:56:46.084Z,6.27
2018-07-30T01:59:15.085Z,7.20
2018-07-30T02:01:44.057Z,7.37
2018-07-30T02:04:13.002Z,7.70
2018-07-30T02:06:42.006Z,8.10
2018-07-30T02:09:11.447Z,7.27
2018-07-30T02:11:40.486Z,7.00
2018-07-30T02:14:09.459Z,6.97
2018-07-30T02:16:38.454Z,7.70
2018-07-30T02:19:07.487Z,7.13
2018-07-30T02:21:36.549Z,7.60
2018-07-30T02:24:07.400Z,6.97
2018-07-30T02:26:36.358Z,6.73
2018-07-30T02:29:05.341Z,7.60
2018-07-30T02:31:34.661Z,7.80
2018-07-30T02:34:04.908Z,7.67
2018-07-30T02:36:33.938Z,7.43
2018-07-30T02:39:09.486Z,7.03
2018-07-30T02:41:39.583Z,7.00
2018-07-30T02:44:08.571Z,7.00
2018-07-30T02:46:39.695Z,7.07
2018-07-30T02:49:09.790Z,7.87
2018-07-30T02:51:38.761Z,7.57
2018-07-30T02:54:07.852Z,8.23
2018-07-30T02:56:36.877Z,7.80
2018-07-30T02:59:05.876Z,7.83
2018-07-30T03:01:35.003Z,7.30
2018-07-30T03:04:03.975Z,7.37
2018-07-30T03:06:32.986Z,6.93
2018-07-30T03:09:01.962Z,7.83
2018-07-30T03:11:30.932Z,8.17
2018-07-30T03:13:59.890Z,7.63
2018-07-30T03:16:28.874Z,7.37
2018-07-30T03:18:57.845Z,8.07
2018-07-30T03:21:26.877Z,8.60
2018-07-30T03:23:55.853Z,8.33
2018-07-30T03:26:24.882Z,7.93
2018-07-30T03:28:53.867Z,8.03
2018-07-30T03:31:22.918Z,8.17
2018-07-30T03:33:51.911Z,7.50
2018-07-30T03:36:20.885Z,7.87
2018-07-30T03:38:49.981Z,8.17
2018-07-30T03:41:20.046Z,9.07
2018-07-30T03:43:50.595Z,7.83
2018-07-30T03:46:19.592Z,8.17
2018-07-30T03:48:48.639Z,7.53
2018-07-30T03:51:17.599Z,7.57
2018-07-30T03:53:48.723Z,8.43
2018-07-30T03:56:17.745Z,7.70
2018-07-30T03:58:46.710Z,7.40
2018-07-30T04:01:15.698Z,8.37
2018-07-30T04:03:44.667Z,7.77
2018-07-30T04:06:14.529Z,7.20
2018-07-30T04:08:44.385Z,8.07
2018-07-30T04:11:13.368Z,8.00
2018-07-30T04:13:42.785Z,7.93
2018-07-30T04:16:11.778Z,8.30
2018-07-30T04:18:40.778Z,7.97
2018-07-30T04:21:09.798Z,8.73
2018-07-30T04:23:38.813Z,8.07
2018-07-30T04:26:08.357Z,8.10
2018-07-30T04:28:37.413Z,8.57
2018-07-30T04:31:06.553Z,9.63
2018-07-30T04:33:35.540Z,9.00
2018-07-30T04:36:04.662Z,8.50
2018-07-30T04:38:33.670Z,9.03
2018-07-30T04:41:02.751Z,10.60
2018-07-30T04:43:31.773Z,8.97
2018-07-30T04:46:00.777Z,9.30
2018-07-30T04:48:29.801Z,8.20
2018-07-30T04:50:58.818Z,8.67
2018-07-30T04:53:27.841Z,9.40
2018-07-30T04:55:56.847Z,9.57
2018-07-30T04:58:27.255Z,9.50
2018-07-30T05:00:56.291Z,9.23
2018-07-30T05:03:25.340Z,9.17
2018-07-30T05:05:54.322Z,8.30
2018-07-30T05:08:23.356Z,9.00
2018-07-30T05:10:52.359Z,8.47
2018-07-30T05:13:21.346Z,8.70
2018-07-30T05:15:50.424Z,8.50
2018-07-30T05:18:19.519Z,8.70
2018-07-30T05:20:48.733Z,7.40
2018-07-30T05:23:17.790Z,8.03
2018-07-30T05:25:46.854Z,8.07
2018-07-30T05:28:15.903Z,8.73
2018-07-30T05:30:44.933Z,8.93
2018-07-30T05:33:14.028Z,7.97
2018-07-30T05:35:43.043Z,8.70
2018-07-30T05:38:12.107Z,7.40
2018-07-30T05:40:41.201Z,7.90
2018-07-30T05:43:10.271Z,8.10
2018-07-30T05:45:39.313Z,7.67
2018-07-30T05:48:08.367Z,7.50
2018-07-30T05:50:37.376Z,7.83
2018-07-30T05:53:07.015Z,7.30
2018-07-30T05:55:36.065Z,7.73
2018-07-30T05:58:05.962Z,7.20
2018-07-30T06:00:34.640Z,7.13
2018-07-30T06:03:03.609Z,7.20
2018-07-30T06:05:32.300Z,7.43
2018-07-30T06:08:00.916Z,7.30
2018-07-30T06:10:29.556Z,7.40
2018-07-30T06:12:58.534Z,6.07
2018-07-30T06:15:27.603Z,7.30
2018-07-30T06:17:56.674Z,6.60
2018-07-30T06:20:25.806Z,7.03
2018-07-30T06:22:55.218Z,6.80
2018-07-30T06:25:25.132Z,6.90
2018-07-30T06:27:55.197Z,6.10
2018-07-30T06:30:24.204Z,6.80
2018-07-30T06:32:53.227Z,6.80
2018-07-30T06:35:22.259Z,7.20
2018-07-30T06:37:51.363Z,7.30
2018-07-30T06:40:20.445Z,7.10
2018-07-30T06:42:49.475Z,6.83
2018-07-30T06:45:18.517Z,6.17
2018-07-30T06:47:47.578Z,6.53
2018-07-30T06:50:16.948Z,6.67
2018-07-30T06:52:45.969Z,6.50
2018-07-30T06:55:14.960Z,6.00
2018-07-30T06:57:43.992Z,5.97
2018-07-30T07:00:13.024Z,6.20
2018-07-30T07:02:42.050Z,5.63
2018-07-30T07:05:11.630Z,6.13
2018-07-30T07:07:40.373Z,6.30
2018-07-30T07:10:10.839Z,6.60
2018-07-30T07:12:39.933Z,5.20
2018-07-30T07:15:12.003Z,5.67
2018-07-30T07:17:41.350Z,5.50
2018-07-30T07:20:10.408Z,5.97
2018-07-30T07:22:39.542Z,6.23
2018-07-30T07:25:08.791Z,5.43
2018-07-30T07:27:37.815Z,5.07
2018-07-30T07:30:08.056Z,5.90
2018-07-30T07:32:37.098Z,6.03
2018-07-30T07:35:06.438Z,5.90
2018-07-30T07:37:35.569Z,5.60
2018-07-30T07:40:05.459Z,6.67
2018-07-30T07:42:34.570Z,5.63
2018-07-30T07:45:03.766Z,5.77
2018-07-30T07:47:32.781Z,5.63
2018-07-30T07:50:01.904Z,5.87
2018-07-30T07:52:30.987Z,5.60
2018-07-30T07:55:02.091Z,5.70
2018-07-30T07:57:31.089Z,5.20
2018-07-30T07:59:59.803Z,5.20
2018-07-30T08:02:29.439Z,5.10
2018-07-30T08:04:58.350Z,5.00
2018-07-30T08:07:27.380Z,4.63
2018-07-30T08:09:56.597Z,4.67
2018-07-30T08:12:25.607Z,4.10
2018-07-30T08:14:54.607Z,4.20
2018-07-30T08:17:23.611Z,5.00
2018-07-30T08:19:52.647Z,4.33
2018-07-30T08:22:21.715Z,4.30
2018-07-30T08:24:50.836Z,4.13
2018-07-30T08:27:19.862Z,4.20
2018-07-30T08:29:48.890Z,4.47
2018-07-30T08:32:17.914Z,4.17
2018-07-30T08:34:46.947Z,4.40
2018-07-30T08:37:15.997Z,4.17
2018-07-30T08:39:45.010Z,4.50
2018-07-30T08:42:14.130Z,4.60
2018-07-30T08:44:43.227Z,4.60
2018-07-30T08:47:12.230Z,5.13
2018-07-30T08:49:41.255Z,4.33
2018-07-30T08:52:10.243Z,4.70
2018-07-30T08:54:39.306Z,4.40
2018-07-30T08:57:08.311Z,4.77
2018-07-30T08:59:37.442Z,4.30
2018-07-30T09:02:06.578Z,4.30
2018-07-30T09:04:35.706Z,4.30
2018-07-30T09:07:05.206Z,4.10
2018-07-30T09:09:34.303Z,4.20
2018-07-30T09:12:03.364Z,4.17
2018-07-30T09:14:32.454Z,4.40
2018-07-30T09:17:01.457Z,3.47
2018-07-30T09:19:30.508Z,4.07
2018-07-30T09:21:59.567Z,4.47
2018-07-30T09:24:28.628Z,4.40
2018-07-30T09:26:57.643Z,4.30
2018-07-30T09:29:26.716Z,4.20
2018-07-30T09:31:55.838Z,4.60
2018-07-30T09:34:24.859Z,4.13
2018-07-30T09:36:53.858Z,4.83
2018-07-30T09:39:23.006Z,3.70
2018-07-30T09:41:51.947Z,3.80
2018-07-30T09:44:20.673Z,3.80
2018-07-30T09:46:49.592Z,4.20
2018-07-30T09:49:18.604Z,3.57
2018-07-30T09:51:47.614Z,3.70
2018-07-30T09:54:16.622Z,4.07
2018-07-30T09:56:45.651Z,3.80
2018-07-30T09:59:14.670Z,3.70
2018-07-30T10:01:43.785Z,3.50
2018-07-30T10:04:12.927Z,4.70
2018-07-30T10:06:41.875Z,3.70
2018-07-30T10:09:11.979Z,3.67
2018-07-30T10:11:41.116Z,3.30
2018-07-30T10:14:10.134Z,3.23
2018-07-30T10:16:39.158Z,3.50
2018-07-30T10:19:08.196Z,2.93
2018-07-30T10:21:37.242Z,3.70
2018-07-30T10:24:06.236Z,3.50
2018-07-30T10:26:35.261Z,3.20
2018-07-30T10:29:04.303Z,3.70
2018-07-30T10:31:33.430Z,3.77
2018-07-30T10:34:02.446Z,3.50
2018-07-30T10:36:31.471Z,3.67
2018-07-30T10:39:00.972Z,3.43
2018-07-30T10:41:31.249Z,3.70
2018-07-30T10:44:00.602Z,3.90
2018-07-30T10:46:29.716Z,3.27
2018-07-30T10:48:58.948Z,3.93
2018-07-30T10:51:28.030Z,4.60
2018-07-30T10:53:57.030Z,4.07
2018-07-30T10:56:26.111Z,4.30
2018-07-30T10:58:55.137Z,4.77
2018-07-30T11:01:24.203Z,4.10
2018-07-30T11:03:53.247Z,3.70
2018-07-30T11:06:22.302Z,4.47
2018-07-30T11:08:51.306Z,3.77
2018-07-30T11:11:20.348Z,4.80
2018-07-30T11:13:49.375Z,4.03
2018-07-30T11:16:18.434Z,4.00
2018-07-30T11:18:51.163Z,4.93
2018-07-30T11:21:20.218Z,4.17
2018-07-30T11:23:49.260Z,4.10
2018-07-30T11:26:18.300Z,4.60
2018-07-30T11:28:47.315Z,5.00
2018-07-30T11:31:16.339Z,4.17
2018-07-30T11:33:45.936Z,4.30
2018-07-30T11:36:15.044Z,4.63
2018-07-30T11:38:44.355Z,4.50
2018-07-30T11:41:12.968Z,4.50
2018-07-30T11:43:41.644Z,4.37
2018-07-30T11:46:10.213Z,4.63
2018-07-30T11:48:39.146Z,4.33
2018-07-30T11:51:08.286Z,4.03
2018-07-30T11:53:37.276Z,4.73
2018-07-30T11:56:06.295Z,4.60
2018-07-30T11:58:35.287Z,4.50
2018-07-30T12:01:04.628Z,4.43
2018-07-30T12:03:33.627Z,4.70
2018-07-30T12:06:02.706Z,4.73
2018-07-30T12:08:31.771Z,4.20
2018-07-30T12:11:00.830Z,4.90
2018-07-30T12:13:29.935Z,4.60
2018-07-30T12:15:58.601Z,4.40
2018-07-30T12:18:27.614Z,4.73
2018-07-30T12:20:56.747Z,4.57
2018-07-30T12:23:25.812Z,4.40
2018-07-30T12:25:55.704Z,3.97
2018-07-30T12:28:24.334Z,3.93
2018-07-30T12:30:53.268Z,4.50
2018-07-30T12:33:22.030Z,4.33
2018-07-30T12:35:50.974Z,4.47
2018-07-30T12:38:19.783Z,3.90
2018-07-30T12:40:48.434Z,4.10
2018-07-30T12:43:17.168Z,4.60
2018-07-30T12:45:47.297Z,4.57
2018-07-30T12:48:16.358Z,4.30
2018-07-30T12:50:45.497Z,3.87
2018-07-30T12:53:14.582Z,4.80
2018-07-30T12:55:43.611Z,4.60
2018-07-30T12:58:12.682Z,3.80
2018-07-30T13:00:41.731Z,4.17
2018-07-30T13:03:10.925Z,4.60
2018-07-30T13:05:39.980Z,4.70
2018-07-30T13:08:09.088Z,4.63
2018-07-30T13:10:38.241Z,4.30
2018-07-30T13:13:07.307Z,3.90
2018-07-30T13:15:36.448Z,4.50
2018-07-30T13:18:06.161Z,3.93
2018-07-30T13:20:35.229Z,4.93
2018-07-30T13:23:04.358Z,3.83
2018-07-30T13:25:33.376Z,4.97
2018-07-30T13:28:02.382Z,4.60
2018-07-30T13:30:31.424Z,4.50
2018-07-30T13:33:00.410Z,4.70
2018-07-30T13:35:29.401Z,4.50
2018-07-30T13:37:58.411Z,4.47
2018-07-30T13:40:27.406Z,4.30
2018-07-30T13:42:56.410Z,4.37
2018-07-30T13:45:25.394Z,4.00
2018-07-30T13:47:54.430Z,4.20
2018-07-30T13:50:23.481Z,4.30
2018-07-30T13:52:52.470Z,4.30
2018-07-30T13:55:21.465Z,4.70
2018-07-30T13:57:50.751Z,4.07
2018-07-30T14:00:19.945Z,4.60
2018-07-30T14:02:48.976Z,4.43
2018-07-30T14:05:17.982Z,4.40
2018-07-30T14:07:47.046Z,4.20
2018-07-30T14:10:16.061Z,4.30
2018-07-30T14:12:45.147Z,4.23
2018-07-30T14:15:14.175Z,4.50
2018-07-30T14:17:43.223Z,4.50
2018-07-30T14:20:12.243Z,4.13
2018-07-30T14:22:41.273Z,4.77
2018-07-30T14:25:10.325Z,4.33
2018-07-30T14:27:39.414Z,4.50
2018-07-30T14:30:09.220Z,3.93
2018-07-30T14:32:38.279Z,4.63
2018-07-30T14:35:07.295Z,4.50
2018-07-30T14:37:36.342Z,4.17
2018-07-30T14:40:11.667Z,4.70
2018-07-30T14:42:40.772Z,4.20
2018-07-30T14:45:11.440Z,4.10
2018-07-30T14:47:40.860Z,4.67
2018-07-30T14:50:10.446Z,4.50
2018-07-30T14:52:39.476Z,3.90
2018-07-30T14:55:09.489Z,4.07
2018-07-30T14:57:38.560Z,4.40
2018-07-30T15:00:08.826Z,4.83
2018-07-30T15:02:38.150Z,4.20
2018-07-30T15:05:07.310Z,3.73
2018-07-30T15:07:36.512Z,4.20
2018-07-30T15:10:05.695Z,4.80
2018-07-30T15:12:34.928Z,3.90
2018-07-30T15:15:04.743Z,4.50
2018-07-30T15:17:34.010Z,4.20
2018-07-30T15:20:03.239Z,4.30
2018-07-30T15:22:32.446Z,4.30
2018-07-30T15:25:01.567Z,4.60
2018-07-30T15:27:30.790Z,4.30
2018-07-30T15:29:59.890Z,3.83
2018-07-30T15:32:29.327Z,4.00
2018-07-30T15:34:58.357Z,4.27
2018-07-30T15:37:27.524Z,4.40
2018-07-30T15:39:57.497Z,4.03
2018-07-30T15:42:26.650Z,4.27
2018-07-30T15:44:56.015Z,4.00
2018-07-30T15:47:25.040Z,4.33
2018-07-30T15:49:54.294Z,4.00
2018-07-30T15:52:23.438Z,4.20
2018-07-30T15:54:52.550Z,4.60
2018-07-30T15:57:21.851Z,4.10
2018-07-30T15:59:51.049Z,4.70
2018-07-30T16:02:20.117Z,4.00
2018-07-30T16:04:49.277Z,4.37
2018-07-30T16:07:18.294Z,4.43
2018-07-30T16:09:47.411Z,4.50
2018-07-30T16:12:16.435Z,4.50
2018-07-30T16:14:45.694Z,3.87
2018-07-30T16:17:14.713Z,4.00
2018-07-30T16:19:43.752Z,3.90
2018-07-30T16:22:12.789Z,4.57
2018-07-30T16:24:41.796Z,4.67
2018-07-30T16:27:10.780Z,4.37
2018-07-30T16:29:39.810Z,4.47
2018-07-30T16:32:08.847Z,5.00
2018-07-30T16:34:37.875Z,4.23
2018-07-30T16:37:06.903Z,4.30
2018-07-30T16:39:35.912Z,4.00
2018-07-30T16:42:05.015Z,4.43
2018-07-30T16:44:34.582Z,4.87
2018-07-30T16:47:07.403Z,4.60
2018-07-30T16:49:36.535Z,4.60
2018-07-30T16:52:05.590Z,3.77
2018-07-30T16:54:34.639Z,4.90
2018-07-30T16:57:03.679Z,4.50
2018-07-30T16:59:32.747Z,4.70
2018-07-30T17:02:01.780Z,4.17
2018-07-30T17:04:30.809Z,4.10
2018-07-30T17:06:59.824Z,5.43
2018-07-30T17:09:28.872Z,4.97
2018-07-30T17:11:58.014Z,4.20
2018-07-30T17:14:27.025Z,4.77
2018-07-30T17:16:56.053Z,4.40
2018-07-30T17:19:25.120Z,4.93
2018-07-30T17:21:54.156Z,5.43
2018-07-30T17:24:23.212Z,4.43
2018-07-30T17:26:52.220Z,4.83
2018-07-30T17:29:21.244Z,4.20
2018-07-30T17:31:50.251Z,4.37
2018-07-30T17:34:19.295Z,4.03
2018-07-30T17:36:48.353Z,4.57
2018-07-30T17:39:17.386Z,4.73
2018-07-30T17:41:46.387Z,4.60
2018-07-30T17:44:15.410Z,4.90
2018-07-30T17:46:44.419Z,4.23
2018-07-30T17:49:13.513Z,5.40
2018-07-30T17:51:44.071Z,4.53
2018-07-30T17:54:13.947Z,4.60
2018-07-30T17:56:43.981Z,5.17
2018-07-30T17:59:14.079Z,4.50
2018-07-30T18:01:43.113Z,4.70
2018-07-30T18:04:12.514Z,4.33
2018-07-30T18:06:41.617Z,4.53
2018-07-30T18:09:11.771Z,3.93
2018-07-30T18:11:40.839Z,5.00
2018-07-30T18:14:09.839Z,4.90
2018-07-30T18:16:39.321Z,4.50
2018-07-30T18:19:09.668Z,6.17
2018-07-30T18:21:38.745Z,6.77
2018-07-30T18:24:07.634Z,5.73
2018-07-30T18:26:36.593Z,5.70
2018-07-30T18:29:05.614Z,4.63
2018-07-30T18:31:34.661Z,4.90
2018-07-30T18:34:03.704Z,4.90
2018-07-30T18:36:32.752Z,5.00
2018-07-30T18:39:01.770Z,4.80
2018-07-30T18:41:30.802Z,4.83
2018-07-30T18:44:04.049Z,5.17
2018-07-30T18:46:33.095Z,4.40
2018-07-30T18:49:02.117Z,4.10
2018-07-30T18:51:31.185Z,4.97
2018-07-30T18:54:00.229Z,4.80
2018-07-30T18:56:32.124Z,4.90
2018-07-30T18:59:01.203Z,4.67
2018-07-30T19:01:30.259Z,4.73
2018-07-30T19:03:59.390Z,4.90
2018-07-30T19:06:28.428Z,4.90
2018-07-30T19:08:57.616Z,5.63
2018-07-30T19:11:26.643Z,5.17
2018-07-30T19:13:55.675Z,4.77
2018-07-30T19:16:24.920Z,4.50
2018-07-30T19:18:54.141Z,4.90
2018-07-30T19:21:23.215Z,4.70
2018-07-30T19:23:52.210Z,5.30
2018-07-30T19:26:21.265Z,5.90
2018-07-30T19:28:50.295Z,5.00
2018-07-30T19:31:19.017Z,5.20
2018-07-30T19:33:48.023Z,4.80
2018-07-30T19:36:17.057Z,4.10
2018-07-30T19:38:47.340Z,5.30
2018-07-30T19:41:16.377Z,4.70
2018-07-30T19:43:45.384Z,5.07
2018-07-30T19:46:14.414Z,4.67
2018-07-30T19:48:43.667Z,5.03
2018-07-30T19:51:12.936Z,5.20
2018-07-30T19:53:41.932Z,5.30
2018-07-30T19:56:11.304Z,5.50
2018-07-30T19:58:40.423Z,5.30
2018-07-30T20:01:10.282Z,5.20
2018-07-30T20:03:40.634Z,4.70
2018-07-30T20:06:09.608Z,4.90
2018-07-30T20:08:40.743Z,4.97
2018-07-30T20:11:11.125Z,5.47
2018-07-30T20:13:40.171Z,5.20
2018-07-30T20:16:09.309Z,5.97
2018-07-30T20:18:38.487Z,5.77
2018-07-30T20:21:07.764Z,5.37
2018-07-30T20:23:36.912Z,4.60
2018-07-30T20:26:05.989Z,5.37
2018-07-30T20:28:35.045Z,5.70
2018-07-30T20:31:04.228Z,5.70
2018-07-30T20:33:33.246Z,5.30
2018-07-30T20:36:02.236Z,5.73
2018-07-30T20:38:31.264Z,5.50
2018-07-30T20:41:00.301Z,5.67
2018-07-30T20:43:29.517Z,5.60
2018-07-30T20:45:59.527Z,5.93
2018-07-30T20:48:28.635Z,4.60
2018-07-30T20:50:57.720Z,5.97
2018-07-30T20:53:26.751Z,5.60
2018-07-30T20:56:01.954Z,4.90
2018-07-30T20:58:35.222Z,6.60
2018-07-30T21:01:05.235Z,5.63
2018-07-30T21:03:34.316Z,5.90
2018-07-30T21:06:03.456Z,5.67
2018-07-30T21:08:32.539Z,5.63
2018-07-30T21:11:01.547Z,6.30
2018-07-30T21:13:30.605Z,5.57
2018-07-30T21:15:59.609Z,5.73
2018-07-30T21:18:28.674Z,5.17
2018-07-30T21:20:57.707Z,5.30
2018-07-30T21:23:26.834Z,6.60
2018-07-30T21:25:55.866Z,5.33
2018-07-30T21:28:24.884Z,5.70
2018-07-30T21:30:53.900Z,5.67
2018-07-30T21:33:22.926Z,6.47
2018-07-30T21:35:51.988Z,5.80
2018-07-30T21:38:21.038Z,6.43
2018-07-30T21:40:50.083Z,6.23
2018-07-30T21:43:19.189Z,6.43
2018-07-30T21:45:48.211Z,5.73
2018-07-30T21:48:17.285Z,6.20
2018-07-30T21:50:47.050Z,5.40
2018-07-30T21:53:16.091Z,5.47
2018-07-30T21:55:46.907Z,5.23
2018-07-30T21:58:15.949Z,6.50
2018-07-30T22:00:50.242Z,6.00
2018-07-30T22:03:19.316Z,6.40
2018-07-30T22:05:52.611Z,6.60
2018-07-30T22:08:21.751Z,6.20
2018-07-30T22:10:50.955Z,6.47
2018-07-30T22:13:20.000Z,6.10
2018-07-30T22:15:49.099Z,6.50
2018-07-30T22:18:18.544Z,7.27
2018-07-30T22:20:47.629Z,6.07
2018-07-30T22:23:16.745Z,6.47
2018-07-30T22:25:45.791Z,7.10
2018-07-30T22:28:14.830Z,6.60
2018-07-30T22:30:43.953Z,6.57
2018-07-30T22:33:13.059Z,6.70
2018-07-30T22:35:42.090Z,6.00
2018-07-30T22:38:11.154Z,5.77
2018-07-30T22:40:40.267Z,7.03
2018-07-30T22:43:09.921Z,6.63
2018-07-30T22:45:39.050Z,7.20
2018-07-30T22:48:08.130Z,6.67
2018-07-30T22:50:37.158Z,6.83
2018-07-30T22:53:06.203Z,7.60
2018-07-30T22:55:35.266Z,6.87
2018-07-30T22:58:04.361Z,5.63
2018-07-30T23:00:33.457Z,6.60
2018-07-30T23:03:03.558Z,7.20
2018-07-30T23:05:32.580Z,7.00
2018-07-30T23:08:02.416Z,6.63
2018-07-30T23:10:31.437Z,7.13
2018-07-30T23:13:00.504Z,7.00
2018-07-30T23:15:29.547Z,6.63
2018-07-30T23:17:59.711Z,6.83
2018-07-30T23:20:28.780Z,7.07
2018-07-30T23:22:57.873Z,7.63
2018-07-30T23:25:26.947Z,7.60
2018-07-30T23:27:55.975Z,7.27
2018-07-30T23:30:25.038Z,7.13
2018-07-30T23:32:54.004Z,6.57
2018-07-30T23:35:23.059Z,7.50
2018-07-30T23:37:52.176Z,7.87
2018-07-30T23:40:21.219Z,7.00
2018-07-30T23:42:50.226Z,6.97
2018-07-30T23:45:19.258Z,6.87
2018-07-30T23:47:48.303Z,6.80
2018-07-30T23:50:18.558Z,6.67
2018-07-30T23:52:47.588Z,7.43
2018-07-30T23:55:16.700Z,7.47
2018-07-30T23:57:45.746Z,7.60
